createdAt,value
2018-07-23T00:00:40.686Z,17.50
2018-07-23T00:02:45.716Z,18.20
2018-07-23T00:04:49.703Z,17.60
2018-07-23T00:06:55.530Z,17.10
2018-07-23T00:09:00.444Z,17.03
2018-07-23T00:11:04.377Z,16.73
2018-07-23T00:13:08.281Z,17.43
2018-07-23T00:15:16.139Z,17.27
2018-07-23T00:17:20.187Z,17.97
2018-07-23T00:19:24.765Z,15.87
2018-07-23T00:21:30.663Z,17.47
2018-07-23T00:23:34.602Z,17.27
2018-07-23T00:25:41.571Z,16.57
2018-07-23T00:27:45.619Z,14.40
2018-07-23T00:29:49.601Z,15.07
2018-07-23T00:31:53.562Z,13.83
2018-07-23T00:33:57.983Z,12.57
2018-07-23T00:36:01.856Z,13.67
2018-07-23T00:38:06.901Z,13.37
2018-07-23T00:40:12.793Z,12.67
2018-07-23T00:42:16.973Z,13.37
2018-07-23T00:44:21.395Z,13.67
2018-07-23T00:46:25.673Z,13.53
2018-07-23T00:48:33.403Z,13.67
2018-07-23T00:50:37.312Z,13.07
2018-07-23T00:52:42.681Z,15.07
2018-07-23T00:54:46.636Z,14.97
2018-07-23T00:56:50.515Z,12.97
2018-07-23T00:58:57.562Z,14.13
2018-07-23T01:01:01.524Z,13.77
2018-07-23T01:03:07.010Z,13.03
2018-07-23T01:05:10.930Z,13.40
2018-07-23T01:07:14.773Z,14.43
2018-07-23T01:09:18.661Z,15.53
2018-07-23T01:11:23.163Z,15.27
2018-07-23T01:13:29.730Z,15.30
2018-07-23T01:15:34.746Z,15.70
2018-07-23T01:17:42.422Z,14.80
2018-07-23T01:19:48.262Z,15.63
2018-07-23T01:21:52.207Z,14.73
2018-07-23T01:23:56.731Z,17.13
2018-07-23T01:26:00.860Z,15.50
2018-07-23T01:28:04.906Z,15.30
2018-07-23T01:30:08.910Z,15.00
2018-07-23T01:32:12.848Z,15.23
2018-07-23T01:34:16.758Z,15.63
2018-07-23T01:36:21.204Z,14.63
2018-07-23T01:38:25.106Z,14.40
2018-07-23T01:40:28.953Z,14.33
2018-07-23T01:42:34.694Z,13.60
2018-07-23T01:44:38.526Z,14.07
2018-07-23T01:46:42.577Z,15.03
2018-07-23T01:48:47.037Z,14.47
2018-07-23T01:50:50.955Z,18.23
2018-07-23T01:52:55.499Z,18.87
2018-07-23T01:54:59.443Z,16.57
2018-07-23T01:57:04.279Z,16.73
2018-07-23T01:59:08.510Z,17.30
2018-07-23T02:01:14.599Z,17.23
2018-07-23T02:03:18.562Z,16.20
2018-07-23T02:05:22.597Z,15.77
2018-07-23T02:07:26.755Z,16.47
2018-07-23T02:09:30.706Z,15.57
2018-07-23T02:11:34.653Z,15.50
2018-07-23T02:13:51.879Z,13.77
2018-07-23T02:15:55.902Z,14.43
2018-07-23T02:17:59.786Z,14.73
2018-07-23T02:20:03.763Z,14.07
2018-07-23T02:22:07.557Z,14.13
2018-07-23T02:24:11.558Z,14.40
2018-07-23T02:26:17.797Z,13.63
2018-07-23T02:28:21.706Z,14.67
2018-07-23T02:30:25.661Z,13.97
2018-07-23T02:32:29.879Z,16.50
2018-07-23T02:34:33.776Z,14.87
2018-07-23T02:36:37.848Z,14.60
2018-07-23T02:38:42.310Z,16.57
2018-07-23T02:40:46.289Z,14.93
2018-07-23T02:42:50.125Z,14.47
2018-07-23T02:44:54.032Z,15.13
2018-07-23T02:46:58.089Z,15.13
2018-07-23T02:49:02.130Z,13.80
2018-07-23T02:51:06.374Z,14.00
2018-07-23T02:53:10.304Z,12.83
2018-07-23T02:55:14.251Z,13.53
2018-07-23T02:57:18.438Z,12.90
2018-07-23T02:59:22.393Z,13.03
2018-07-23T03:01:26.343Z,15.03
2018-07-23T03:03:30.613Z,14.07
2018-07-23T03:05:34.502Z,13.53
2018-07-23T03:07:39.130Z,12.70
2018-07-23T03:09:44.338Z,13.43
2018-07-23T03:11:50.539Z,15.30
2018-07-23T03:13:54.444Z,14.07
2018-07-23T03:15:59.549Z,17.37
2018-07-23T03:18:04.312Z,17.63
2018-07-23T03:20:08.206Z,17.40
2018-07-23T03:22:13.348Z,17.67
2018-07-23T03:24:17.104Z,17.07
2018-07-23T03:26:21.478Z,16.03
2018-07-23T03:28:27.624Z,17.13
2018-07-23T03:30:32.460Z,16.80
2018-07-23T03:32:37.245Z,16.93
2018-07-23T03:34:46.160Z,17.90
2018-07-23T03:36:50.108Z,18.00
2018-07-23T03:38:54.043Z,18.27
2018-07-23T03:40:57.970Z,17.90
2018-07-23T03:43:01.783Z,16.97
2018-07-23T03:45:07.283Z,17.13
2018-07-23T03:47:12.803Z,16.73
2018-07-23T03:49:16.769Z,16.73
2018-07-23T03:51:20.624Z,14.87
2018-07-23T03:53:24.902Z,13.17
2018-07-23T03:55:29.720Z,14.40
2018-07-23T03:57:35.353Z,14.73
2018-07-23T03:59:39.614Z,14.43
2018-07-23T04:01:43.644Z,14.27
2018-07-23T04:03:47.508Z,14.03
2018-07-23T04:05:51.802Z,16.20
2018-07-23T04:07:55.748Z,15.30
2018-07-23T04:09:59.982Z,15.53
2018-07-23T04:12:05.388Z,15.00
2018-07-23T04:14:09.554Z,15.83
2018-07-23T04:16:16.357Z,14.80
2018-07-23T04:18:21.827Z,13.83
2018-07-23T04:20:25.799Z,14.17
2018-07-23T04:22:30.687Z,14.17
2018-07-23T04:24:34.865Z,15.50
2018-07-23T04:26:38.762Z,14.67
2018-07-23T04:28:42.684Z,17.17
2018-07-23T04:30:47.709Z,14.60
2018-07-23T04:35:18.900Z,15.47
2018-07-23T04:37:51.889Z,14.63
2018-07-23T04:40:25.394Z,14.20
2018-07-23T04:42:59.176Z,14.30
2018-07-23T04:45:32.857Z,13.13
2018-07-23T04:48:07.468Z,13.33
2018-07-23T04:50:41.082Z,13.10
2018-07-23T04:53:14.613Z,11.97
2018-07-23T04:55:48.483Z,12.70
2018-07-23T04:58:22.131Z,12.83
2018-07-23T05:00:55.879Z,14.00
2018-07-23T05:03:29.689Z,15.70
2018-07-23T05:06:16.820Z,16.00
2018-07-23T05:08:46.288Z,14.37
2018-07-23T05:11:21.740Z,19.73
2018-07-23T05:13:55.191Z,15.50
2018-07-23T05:16:27.973Z,19.40
2018-07-23T05:19:09.805Z,18.63
2018-07-23T05:21:43.468Z,18.77
2018-07-23T05:24:16.183Z,29.43
2018-07-23T05:26:51.137Z,31.17
2018-07-23T05:29:23.880Z,25.97
2018-07-23T05:31:56.744Z,27.00
2018-07-23T05:34:31.540Z,35.30
2018-07-23T05:37:05.018Z,41.73
2018-07-23T05:39:37.874Z,30.70
2018-07-23T05:42:24.599Z,39.60
2018-07-23T05:44:58.348Z,33.17
2018-07-23T05:47:34.952Z,32.20
2018-07-23T05:50:12.597Z,32.37
2018-07-23T05:52:53.240Z,34.50
2018-07-23T05:55:29.943Z,31.50
2018-07-23T05:58:06.539Z,32.67
2018-07-23T06:00:49.217Z,31.20
2018-07-23T06:03:21.996Z,30.60
2018-07-23T06:05:57.732Z,30.23
2018-07-23T06:08:32.985Z,33.73
2018-07-23T06:11:23.539Z,31.23
2018-07-23T06:13:56.660Z,34.93
2018-07-23T06:16:31.262Z,34.50
2018-07-23T06:19:05.385Z,35.03
2018-07-23T06:21:39.413Z,34.97
2018-07-23T06:24:12.923Z,36.53
2018-07-23T06:26:46.628Z,37.93
2018-07-23T06:29:21.251Z,37.33
2018-07-23T06:31:55.038Z,34.17
2018-07-23T06:34:31.218Z,32.20
2018-07-23T06:37:05.185Z,36.93
2018-07-23T06:39:37.939Z,41.03
2018-07-23T06:42:13.634Z,35.77
2018-07-23T06:44:46.417Z,34.80
2018-07-23T06:47:21.171Z,35.40
2018-07-23T06:49:53.936Z,35.50
2018-07-23T06:52:32.637Z,34.33
2018-07-23T06:55:11.198Z,31.00
2018-07-23T06:57:46.015Z,28.67
2018-07-23T07:00:23.285Z,26.23
2018-07-23T07:02:59.636Z,29.03
2018-07-23T07:05:36.547Z,27.95
2018-07-23T07:08:10.788Z,26.23
2018-07-23T07:10:43.753Z,23.95
2018-07-23T07:13:18.367Z,24.52
2018-07-23T07:15:55.672Z,23.55
2018-07-23T07:18:29.621Z,24.10
2018-07-23T07:21:03.390Z,25.17
2018-07-23T07:23:38.189Z,23.30
2018-07-23T07:26:12.672Z,25.65
2018-07-23T07:28:53.308Z,26.20
2018-07-23T07:31:29.995Z,25.88
2018-07-23T07:34:03.594Z,25.95
2018-07-23T07:36:39.360Z,21.30
2018-07-23T07:39:17.045Z,23.47
2018-07-23T07:41:52.582Z,24.52
2018-07-23T07:44:26.420Z,24.52
2018-07-23T07:47:07.065Z,25.57
2018-07-23T07:49:42.701Z,24.07
2018-07-23T07:52:18.580Z,20.62
2018-07-23T07:54:53.097Z,22.82
2018-07-23T07:57:28.020Z,20.52
2018-07-23T08:00:04.473Z,21.97
2018-07-23T08:02:38.234Z,18.42
2018-07-23T08:05:13.821Z,19.37
2018-07-23T08:07:52.735Z,20.12
2018-07-23T08:10:28.828Z,19.35
2018-07-23T08:12:55.910Z,20.48
2018-07-23T08:15:30.126Z,17.70
2018-07-23T08:18:06.627Z,18.02
2018-07-23T08:20:18.153Z,17.55
2018-07-23T08:22:24.542Z,17.40
2018-07-23T08:24:29.773Z,17.85
2018-07-23T08:26:39.325Z,18.00
2018-07-23T08:28:43.139Z,16.25
2018-07-23T08:30:49.335Z,18.90
2018-07-23T08:33:18.782Z,17.05
2018-07-23T08:35:27.296Z,19.05
2018-07-23T08:37:36.751Z,16.60
2018-07-23T08:39:43.569Z,15.63
2018-07-23T08:41:48.432Z,17.07
2018-07-23T08:43:59.352Z,14.07
2018-07-23T08:46:05.579Z,15.72
2018-07-23T08:48:14.324Z,16.95
2018-07-23T08:50:25.170Z,13.70
2018-07-23T08:52:30.464Z,13.38
2018-07-23T08:54:41.447Z,13.80
2018-07-23T08:56:48.176Z,13.30
2018-07-23T08:58:56.181Z,14.10
2018-07-23T09:01:05.489Z,13.10
2018-07-23T09:05:24.400Z,13.13
2018-07-23T09:07:28.231Z,14.30
2018-07-23T09:09:35.292Z,13.25
2018-07-23T09:11:39.227Z,13.32
2018-07-23T09:13:44.271Z,15.32
2018-07-23T09:15:52.961Z,12.88
2018-07-23T09:17:57.726Z,11.25
2018-07-23T09:20:02.825Z,13.15
2018-07-23T09:22:06.988Z,11.53
2018-07-23T09:24:11.006Z,11.43
2018-07-23T09:26:15.624Z,11.65
2018-07-23T09:28:20.443Z,10.32
2018-07-23T09:30:56.880Z,9.78
2018-07-23T09:33:01.491Z,11.63
2018-07-23T09:35:10.308Z,11.73
2018-07-23T09:37:16.404Z,9.30
2018-07-23T09:39:24.294Z,12.40
2018-07-23T09:41:28.998Z,11.57
2018-07-23T09:43:35.021Z,13.72
2018-07-23T09:45:53.765Z,13.43
2018-07-23T09:47:57.926Z,13.30
2018-07-23T09:50:03.970Z,10.40
2018-07-23T09:52:09.442Z,11.95
2018-07-23T09:54:13.436Z,11.35
2018-07-23T09:56:19.343Z,10.53
2018-07-23T09:58:23.671Z,12.15
2018-07-23T10:00:32.784Z,11.50
2018-07-23T10:02:40.625Z,10.15
2018-07-23T10:04:47.705Z,12.88
2018-07-23T10:06:52.854Z,10.70
2018-07-23T10:08:58.323Z,9.83
2018-07-23T10:11:06.020Z,12.78
2018-07-23T10:13:10.256Z,10.20
2018-07-23T10:15:16.633Z,11.30
2018-07-23T10:17:21.197Z,11.20
2018-07-23T10:19:25.492Z,12.13
2018-07-23T10:21:30.034Z,11.57
2018-07-23T10:23:34.713Z,13.18
2018-07-23T10:25:38.548Z,12.43
2018-07-23T10:27:43.050Z,12.88
2018-07-23T10:29:48.771Z,12.25
2018-07-23T10:31:53.216Z,13.62
2018-07-23T10:33:57.268Z,12.03
2018-07-23T10:36:05.838Z,12.30
2018-07-23T10:38:10.463Z,11.03
2018-07-23T10:40:17.538Z,13.08
2018-07-23T10:42:22.530Z,10.45
2018-07-23T10:44:27.262Z,12.33
2018-07-23T10:46:33.048Z,11.12
2018-07-23T10:48:36.582Z,11.50
2018-07-23T10:50:44.371Z,9.98
2018-07-23T10:52:52.781Z,10.25
2018-07-23T10:54:58.044Z,11.55
2018-07-23T10:57:03.647Z,11.00
2018-07-23T10:59:12.316Z,9.70
2018-07-23T11:01:24.290Z,9.60
2018-07-23T11:03:28.212Z,10.00
2018-07-23T11:05:33.162Z,10.10
2018-07-23T11:07:37.108Z,10.30
2018-07-23T11:09:43.161Z,9.40
2018-07-23T11:11:48.400Z,10.13
2018-07-23T11:13:55.438Z,9.88
2018-07-23T11:15:59.285Z,9.80
2018-07-23T11:18:07.382Z,9.48
2018-07-23T11:20:17.181Z,9.48
2018-07-23T11:22:23.504Z,11.43
2018-07-23T11:24:29.298Z,9.85
2018-07-23T11:26:34.999Z,9.13
2018-07-23T11:28:39.585Z,10.08
2018-07-23T11:30:51.933Z,10.15
2018-07-23T11:33:06.265Z,8.78
2018-07-23T11:35:19.158Z,10.03
2018-07-23T11:37:24.372Z,8.28
2018-07-23T11:39:41.399Z,9.95
2018-07-23T11:41:49.158Z,9.10
2018-07-23T11:45:03.459Z,8.68
2018-07-23T11:47:17.533Z,8.78
2018-07-23T11:49:23.776Z,8.65
2018-07-23T11:51:30.848Z,9.43
2018-07-23T11:57:47.756Z,9.23
2018-07-23T11:59:52.458Z,8.60
2018-07-23T12:01:57.205Z,8.85
2018-07-23T12:04:03.734Z,8.35
2018-07-23T12:06:08.484Z,7.92
2018-07-23T12:08:13.915Z,9.63
2018-07-23T12:10:18.681Z,9.35
2018-07-23T12:12:23.563Z,9.70
2018-07-23T12:14:27.566Z,8.50
2018-07-23T12:16:32.475Z,8.03
2018-07-23T12:18:37.957Z,9.65
2018-07-23T12:20:43.833Z,7.75
2018-07-23T12:22:51.294Z,8.78
2018-07-23T12:24:59.674Z,8.18
2018-07-23T12:27:04.608Z,8.73
2018-07-23T12:29:08.414Z,8.88
2018-07-23T12:31:11.861Z,11.63
2018-07-23T12:33:18.016Z,8.63
2018-07-23T12:35:25.768Z,11.65
2018-07-23T12:37:34.474Z,9.13
2018-07-23T12:39:39.137Z,9.75
2018-07-23T12:41:54.988Z,8.58
2018-07-23T12:43:59.789Z,8.58
2018-07-23T12:46:03.741Z,8.08
2018-07-23T12:48:07.732Z,9.18
2018-07-23T12:50:52.462Z,8.18
2018-07-23T12:53:01.932Z,8.05
2018-07-23T12:55:06.128Z,8.58
2018-07-23T12:57:12.369Z,8.35
2018-07-23T12:59:17.787Z,8.10
2018-07-23T13:01:22.206Z,8.15
2018-07-23T13:03:28.763Z,9.20
2018-07-23T13:05:33.850Z,8.50
2018-07-23T13:07:37.271Z,7.65
2018-07-23T13:09:41.390Z,8.65
2018-07-23T13:11:45.571Z,8.33
2018-07-23T13:13:49.596Z,8.33
2018-07-23T13:15:59.388Z,10.48
2018-07-23T13:18:04.155Z,8.25
2018-07-23T13:20:08.130Z,7.72
2018-07-23T13:22:13.822Z,8.85
2018-07-23T13:24:19.492Z,8.68
2018-07-23T13:26:24.734Z,9.28
2018-07-23T13:28:28.660Z,7.87
2018-07-23T13:30:32.621Z,8.35
2018-07-23T13:32:38.726Z,7.62
2018-07-23T13:34:51.398Z,7.40
2018-07-23T13:36:55.941Z,8.48
2018-07-23T13:38:59.917Z,6.97
2018-07-23T13:41:04.525Z,7.10
2018-07-23T13:43:10.997Z,6.83
2018-07-23T13:45:17.869Z,7.10
2018-07-23T13:47:21.760Z,8.55
2018-07-23T13:49:26.127Z,7.72
2018-07-23T13:51:32.978Z,7.92
2018-07-23T13:53:37.378Z,7.25
2018-07-23T13:55:52.034Z,9.23
2018-07-23T13:57:55.583Z,9.75
2018-07-23T14:00:08.499Z,8.80
2018-07-23T14:02:15.435Z,7.67
2018-07-23T14:04:20.301Z,9.15
2018-07-23T14:06:24.228Z,7.03
2018-07-23T14:08:29.391Z,6.50
2018-07-23T14:10:33.032Z,7.60
2018-07-23T14:12:36.931Z,9.48
2018-07-23T14:14:41.431Z,6.58
2018-07-23T14:17:02.673Z,7.03
2018-07-23T14:19:06.654Z,7.60
2018-07-23T14:21:11.125Z,5.45
2018-07-23T14:23:15.985Z,7.15
2018-07-23T14:25:20.050Z,7.97
2018-07-23T14:27:25.540Z,5.95
2018-07-23T14:29:30.299Z,5.72
2018-07-23T14:31:36.107Z,5.25
2018-07-23T14:33:41.446Z,6.25
2018-07-23T14:35:48.584Z,5.25
2018-07-23T14:37:53.429Z,5.17
2018-07-23T14:39:57.761Z,6.15
2018-07-23T14:42:02.175Z,5.00
2018-07-23T14:44:10.370Z,9.65
2018-07-23T14:46:16.479Z,6.22
2018-07-23T14:48:20.469Z,7.17
2018-07-23T14:50:24.591Z,15.23
2018-07-23T14:52:29.188Z,6.47
2018-07-23T14:54:36.211Z,6.20
2018-07-23T14:56:41.719Z,5.80
2018-07-23T14:58:46.313Z,5.47
2018-07-23T15:00:50.500Z,6.67
2018-07-23T15:02:54.871Z,5.80
2018-07-23T15:05:00.231Z,6.75
2018-07-23T15:07:11.440Z,6.12
2018-07-23T15:09:33.645Z,6.25
2018-07-23T15:11:37.910Z,6.20
2018-07-23T15:13:44.428Z,5.28
2018-07-23T15:15:52.147Z,5.28
2018-07-23T15:17:59.384Z,5.92
2018-07-23T15:20:05.349Z,5.17
2018-07-23T15:22:10.883Z,5.85
2018-07-23T15:24:22.428Z,5.70
2018-07-23T15:26:29.267Z,5.80
2018-07-23T15:28:34.928Z,8.03
2018-07-23T15:30:42.206Z,5.30
2018-07-23T15:32:46.360Z,5.58
2018-07-23T15:34:51.030Z,5.72
2018-07-23T15:36:56.663Z,6.00
2018-07-23T15:39:03.582Z,5.58
2018-07-23T15:41:09.624Z,6.28
2018-07-23T15:43:17.132Z,5.35
2018-07-23T15:45:23.187Z,6.28
2018-07-23T15:47:29.067Z,6.97
2018-07-23T15:49:32.596Z,4.83
2018-07-23T15:51:39.304Z,5.50
2018-07-23T15:53:49.419Z,5.85
2018-07-23T15:56:00.740Z,4.87
2018-07-23T15:58:05.312Z,5.22
2018-07-23T16:00:19.078Z,5.90
2018-07-23T16:02:24.224Z,5.85
2018-07-23T16:04:39.241Z,5.62
2018-07-23T16:06:44.014Z,5.20
2018-07-23T16:08:49.359Z,6.28
2018-07-23T16:10:54.238Z,4.95
2018-07-23T16:13:00.627Z,8.43
2018-07-23T16:15:07.446Z,5.72
2018-07-23T16:17:13.116Z,5.17
2018-07-23T16:19:20.303Z,4.72
2018-07-23T16:21:27.926Z,5.15
2018-07-23T16:23:32.419Z,4.92
2018-07-23T16:25:39.647Z,10.20
2018-07-23T16:27:55.511Z,7.47
2018-07-23T16:32:13.137Z,4.55
2018-07-23T16:34:17.536Z,4.90
2018-07-23T16:36:22.657Z,7.67
2018-07-23T16:38:28.145Z,4.72
2018-07-23T16:40:33.796Z,4.90
2018-07-23T16:42:38.594Z,4.33
2018-07-23T16:44:44.217Z,4.83
2018-07-23T16:46:52.301Z,4.75
2018-07-23T16:49:08.264Z,4.70
2018-07-23T16:51:22.037Z,5.75
2018-07-23T16:53:29.415Z,5.22
2018-07-23T16:55:37.416Z,5.22
2018-07-23T16:57:54.659Z,5.10
2018-07-23T17:01:05.540Z,4.67
2018-07-23T17:03:13.624Z,4.80
2018-07-23T17:05:19.023Z,4.97
2018-07-23T17:07:34.491Z,4.62
2018-07-23T17:09:43.784Z,5.50
2018-07-23T17:11:59.501Z,4.12
2018-07-23T17:14:04.034Z,4.83
2018-07-23T17:16:13.254Z,5.15
2018-07-23T17:18:35.215Z,6.10
2018-07-23T17:20:40.571Z,5.65
2018-07-23T17:22:44.591Z,4.42
2018-07-23T17:24:48.883Z,4.70
2018-07-23T17:26:54.604Z,4.50
2018-07-23T17:29:03.088Z,4.22
2018-07-23T17:31:07.492Z,4.40
2018-07-23T17:33:11.624Z,4.50
2018-07-23T17:35:15.765Z,4.22
2018-07-23T17:37:21.756Z,5.05
2018-07-23T17:39:28.349Z,6.40
2018-07-23T17:41:34.120Z,4.35
2018-07-23T17:43:40.436Z,4.12
2018-07-23T17:45:45.661Z,4.67
2018-07-23T17:47:50.648Z,4.60
2018-07-23T17:49:58.727Z,4.65
2018-07-23T17:52:05.782Z,4.53
2018-07-23T17:54:11.106Z,4.97
2018-07-23T17:56:15.205Z,4.10
2018-07-23T17:58:23.146Z,5.37
2018-07-23T18:01:06.086Z,5.47
2018-07-23T18:03:10.816Z,4.70
2018-07-23T18:05:19.713Z,4.80
2018-07-23T18:07:23.759Z,4.60
2018-07-23T18:09:27.960Z,4.72
2018-07-23T18:11:33.377Z,4.50
2018-07-23T18:13:38.259Z,4.30
2018-07-23T18:15:43.330Z,5.40
2018-07-23T18:17:48.318Z,5.40
2018-07-23T18:19:53.167Z,4.65
2018-07-23T18:22:00.224Z,4.87
2018-07-23T18:24:05.572Z,4.22
2018-07-23T18:26:11.119Z,4.22
2018-07-23T18:28:17.455Z,5.03
2018-07-23T18:30:22.340Z,5.90
2018-07-23T18:32:26.390Z,5.15
2018-07-23T18:34:30.765Z,4.45
2018-07-23T18:36:35.019Z,5.05
2018-07-23T18:38:40.844Z,5.08
2018-07-23T18:40:46.335Z,5.20
2018-07-23T18:42:52.084Z,6.03
2018-07-23T18:44:56.787Z,4.80
2018-07-23T18:47:00.889Z,5.10
2018-07-23T18:49:28.506Z,5.53
2018-07-23T18:51:52.343Z,5.60
2018-07-23T18:54:01.429Z,9.45
2018-07-23T18:56:06.716Z,5.12
2018-07-23T18:58:11.958Z,5.25
2018-07-23T19:00:23.988Z,6.15
2018-07-23T19:02:34.143Z,6.00
2018-07-23T19:04:39.519Z,13.68
2018-07-23T19:06:44.195Z,7.50
2018-07-23T19:08:49.485Z,6.45
2018-07-23T19:10:57.136Z,6.35
2018-07-23T19:13:01.444Z,5.58
2018-07-23T19:15:10.309Z,6.47
2018-07-23T19:17:24.656Z,6.30
2018-07-23T19:19:29.703Z,5.67
2018-07-23T19:21:38.781Z,5.92
2018-07-23T19:23:49.851Z,6.15
2018-07-23T19:26:01.874Z,5.75
2018-07-23T19:28:24.456Z,5.10
2018-07-23T19:30:32.804Z,5.63
2018-07-23T19:32:40.460Z,5.58
2018-07-23T19:34:47.463Z,7.00
2018-07-23T19:37:02.699Z,7.07
2018-07-23T19:39:17.179Z,6.00
2018-07-23T19:41:22.624Z,9.43
2018-07-23T19:43:29.345Z,8.57
2018-07-23T19:45:36.141Z,7.07
2018-07-23T19:47:42.267Z,8.37
2018-07-23T19:49:53.647Z,8.98
2018-07-23T19:52:00.704Z,6.67
2018-07-23T19:54:05.463Z,6.63
2018-07-23T19:56:11.782Z,6.00
2018-07-23T19:58:20.533Z,7.15
2018-07-23T20:00:25.712Z,6.77
2018-07-23T20:02:35.064Z,7.23
2018-07-23T20:04:42.449Z,7.90
2018-07-23T20:07:03.242Z,6.93
2018-07-23T20:11:27.425Z,9.10
2018-07-23T20:13:32.639Z,9.87
2018-07-23T20:15:37.878Z,6.90
2018-07-23T20:17:50.390Z,7.53
2018-07-23T20:20:00.451Z,7.40
2018-07-23T20:22:06.356Z,6.90
2018-07-23T20:24:11.824Z,7.00
2018-07-23T20:26:18.956Z,7.93
2018-07-23T20:28:24.787Z,7.13
2018-07-23T20:30:30.568Z,6.97
2018-07-23T20:32:35.670Z,7.50
2018-07-23T20:34:42.604Z,9.57
2018-07-23T20:36:47.036Z,7.53
2018-07-23T20:38:51.801Z,7.67
2018-07-23T20:40:58.987Z,7.33
2018-07-23T20:43:04.898Z,10.97
2018-07-23T20:47:20.264Z,7.93
2018-07-23T20:49:26.651Z,7.80
2018-07-23T20:51:30.814Z,7.97
2018-07-23T20:53:35.300Z,8.40
2018-07-23T20:55:39.810Z,10.13
2018-07-23T20:57:44.799Z,8.60
2018-07-23T20:59:49.044Z,8.80
2018-07-23T21:01:53.997Z,9.90
2018-07-23T21:03:59.865Z,8.70
2018-07-23T21:06:04.520Z,8.37
2018-07-23T21:08:13.669Z,9.07
2018-07-23T21:10:26.422Z,9.53
2018-07-23T21:12:56.271Z,9.00
2018-07-23T21:15:07.599Z,9.73
2018-07-23T21:17:15.981Z,9.17
2018-07-23T21:19:25.488Z,9.47
2018-07-23T21:21:29.642Z,9.40
2018-07-23T21:23:41.456Z,9.60
2018-07-23T21:25:47.289Z,9.13
2018-07-23T21:27:53.382Z,10.00
2018-07-23T21:29:57.989Z,9.40
2018-07-23T21:32:04.983Z,9.80
2018-07-23T21:34:20.010Z,9.77
2018-07-23T21:36:29.148Z,9.63
2018-07-23T21:38:38.022Z,9.63
2018-07-23T21:40:46.240Z,10.07
2018-07-23T21:42:50.241Z,10.00
2018-07-23T21:44:54.453Z,10.07
2018-07-23T21:47:00.993Z,9.60
2018-07-23T21:49:07.990Z,9.63
2018-07-23T21:51:12.001Z,9.53
2018-07-23T21:53:17.408Z,10.37
2018-07-23T21:55:21.604Z,9.60
2018-07-23T21:57:27.444Z,10.37
2018-07-23T21:59:34.111Z,10.07
2018-07-23T22:01:40.685Z,9.67
2018-07-23T22:03:45.432Z,9.57
2018-07-23T22:05:50.644Z,11.20
2018-07-23T22:07:56.081Z,10.17
2018-07-23T22:10:02.306Z,10.03
2018-07-23T22:12:07.523Z,10.63
2018-07-23T22:14:12.816Z,10.30
2018-07-23T22:16:22.785Z,10.27
2018-07-23T22:18:32.696Z,9.97
2018-07-23T22:20:37.602Z,10.10
2018-07-23T22:22:42.348Z,9.67
2018-07-23T22:24:47.609Z,10.23
2018-07-23T22:26:55.385Z,10.80
2018-07-23T22:29:00.282Z,10.23
2018-07-23T22:31:10.243Z,10.33
2018-07-23T22:33:14.849Z,10.07
2018-07-23T22:35:18.404Z,9.97
2018-07-23T22:37:22.856Z,9.57
2018-07-23T22:39:27.190Z,9.23
2018-07-23T22:41:32.736Z,9.83
2018-07-23T22:43:38.267Z,12.50
2018-07-23T22:45:43.545Z,9.33
2018-07-23T22:50:06.513Z,10.53
2018-07-23T22:52:11.192Z,9.63
2018-07-23T22:54:15.361Z,8.50
2018-07-23T22:56:21.777Z,8.63
2018-07-23T22:58:26.808Z,9.70
2018-07-23T23:00:32.526Z,10.80
2018-07-23T23:02:38.346Z,10.17
2018-07-23T23:04:43.809Z,10.27
2018-07-23T23:06:49.343Z,10.60
2018-07-23T23:09:02.133Z,10.03
2018-07-23T23:11:08.755Z,10.77
2018-07-23T23:13:12.947Z,10.63
2018-07-23T23:15:19.384Z,10.77
2018-07-23T23:17:23.777Z,11.53
2018-07-23T23:19:29.312Z,10.60
2018-07-23T23:21:35.215Z,10.50
2018-07-23T23:23:40.400Z,10.33
2018-07-23T23:25:44.451Z,9.57
2018-07-23T23:27:48.810Z,9.20
2018-07-23T23:29:52.873Z,9.23
2018-07-23T23:31:56.893Z,9.20
2018-07-23T23:34:00.952Z,9.27
2018-07-23T23:36:05.824Z,11.87
2018-07-23T23:38:09.943Z,9.07
2018-07-23T23:40:14.412Z,9.57
2018-07-23T23:42:18.500Z,8.83
2018-07-23T23:44:22.690Z,10.73
2018-07-23T23:46:26.930Z,10.57
2018-07-23T23:48:31.447Z,9.10
2018-07-23T23:50:35.551Z,10.00
2018-07-23T23:52:40.834Z,11.07
2018-07-23T23:54:44.894Z,9.83
2018-07-23T23:56:49.118Z,10.73
2018-07-23T23:58:53.529Z,11.47
